Terminal Aerodrome Forecast
Issued by NWS

Home | Current Version | Previous Version | Text Only | Print | Product List | Glossary On
Versions: 1 2 3 4 5 6 7 8 9 10 11 12
000
FTAK31 PAFA 291723
TAFAOM
TAF
PAOM 291723Z 2918/3018 33006KT P6SM SCT080 BKN180
     FM292100 01005KT P6SM VCSH BKN040 BKN100
     FM300000 02008KT P6SM VCSH BKN035 OVC060=

USA.gov is the U.S. government's official web portal to all federal, state and local government web resources and services.